sensor_id;sensor_type;location;lat;lon;timestamp;P1;durP1;ratioP1;P2;durP2;ratioP2
25531;SDS011;13429;48.816;9.118;2022-12-11T00:02:20;34.72;;;19.60;;
25531;SDS011;13429;48.816;9.118;2022-12-11T00:04:46;41.20;;;21.20;;
25531;SDS011;13429;48.816;9.118;2022-12-11T00:07:12;34.65;;;19.63;;
25531;SDS011;13429;48.816;9.118;2022-12-11T00:09:38;38.35;;;20.05;;
25531;SDS011;13429;48.816;9.118;2022-12-11T00:12:04;35.90;;;19.73;;
25531;SDS011;13429;48.816;9.118;2022-12-11T00:14:31;33.92;;;19.73;;
25531;SDS011;13429;48.816;9.118;2022-12-11T00:16:57;36.70;;;19.38;;
25531;SDS011;13429;48.816;9.118;2022-12-11T00:19:23;33.63;;;19.58;;
25531;SDS011;13429;48.816;9.118;2022-12-11T00:21:49;33.50;;;19.73;;
25531;SDS011;13429;48.816;9.118;2022-12-11T00:24:15;34.83;;;19.42;;
25531;SDS011;13429;48.816;9.118;2022-12-11T00:26:41;35.03;;;19.02;;
25531;SDS011;13429;48.816;9.118;2022-12-11T00:29:08;33.72;;;18.23;;
25531;SDS011;13429;48.816;9.118;2022-12-11T00:31:38;32.40;;;17.13;;
25531;SDS011;13429;48.816;9.118;2022-12-11T00:34:04;36.88;;;18.23;;
25531;SDS011;13429;48.816;9.118;2022-12-11T00:36:30;31.15;;;17.50;;
25531;SDS011;13429;48.816;9.118;2022-12-11T00:38:56;32.55;;;17.85;;
25531;SDS011;13429;48.816;9.118;2022-12-11T00:41:22;30.80;;;17.48;;
25531;SDS011;13429;48.816;9.118;2022-12-11T00:43:49;33.08;;;18.23;;
25531;SDS011;13429;48.816;9.118;2022-12-11T00:46:15;35.92;;;20.08;;
25531;SDS011;13429;48.816;9.118;2022-12-11T00:48:41;35.63;;;18.90;;
25531;SDS011;13429;48.816;9.118;2022-12-11T00:51:07;34.33;;;18.75;;
25531;SDS011;13429;48.816;9.118;2022-12-11T00:53:33;35.30;;;19.27;;
25531;SDS011;13429;48.816;9.118;2022-12-11T00:55:59;38.60;;;20.55;;
25531;SDS011;13429;48.816;9.118;2022-12-11T00:58:25;35.00;;;18.88;;
25531;SDS011;13429;48.816;9.118;2022-12-11T01:00:51;31.05;;;17.25;;
25531;SDS011;13429;48.816;9.118;2022-12-11T01:03:17;33.40;;;19.38;;
25531;SDS011;13429;48.816;9.118;2022-12-11T01:05:50;34.55;;;19.30;;
25531;SDS011;13429;48.816;9.118;2022-12-11T01:08:17;32.97;;;18.25;;
25531;SDS011;13429;48.816;9.118;2022-12-11T01:10:42;37.50;;;18.85;;
25531;SDS011;13429;48.816;9.118;2022-12-11T01:13:08;36.20;;;20.20;;
25531;SDS011;13429;48.816;9.118;2022-12-11T01:15:38;37.28;;;19.45;;
25531;SDS011;13429;48.816;9.118;2022-12-11T01:18:05;35.75;;;19.60;;
25531;SDS011;13429;48.816;9.118;2022-12-11T01:20:31;33.60;;;17.60;;
25531;SDS011;13429;48.816;9.118;2022-12-11T01:22:57;31.45;;;17.95;;
25531;SDS011;13429;48.816;9.118;2022-12-11T01:25:24;29.80;;;17.00;;
25531;SDS011;13429;48.816;9.118;2022-12-11T01:27:50;30.13;;;17.17;;
25531;SDS011;13429;48.816;9.118;2022-12-11T01:30:17;31.75;;;17.58;;
25531;SDS011;13429;48.816;9.118;2022-12-11T01:32:43;31.83;;;17.10;;
25531;SDS011;13429;48.816;9.118;2022-12-11T01:35:10;28.88;;;17.17;;
25531;SDS011;13429;48.816;9.118;2022-12-11T01:37:36;28.98;;;16.38;;
25531;SDS011;13429;48.816;9.118;2022-12-11T01:40:03;30.25;;;18.48;;
25531;SDS011;13429;48.816;9.118;2022-12-11T01:42:29;32.67;;;18.63;;
25531;SDS011;13429;48.816;9.118;2022-12-11T01:47:39;32.20;;;17.58;;
25531;SDS011;13429;48.816;9.118;2022-12-11T01:50:05;32.38;;;17.80;;
25531;SDS011;13429;48.816;9.118;2022-12-11T01:52:31;31.00;;;16.75;;
25531;SDS011;13429;48.816;9.118;2022-12-11T01:54:58;30.65;;;16.13;;
25531;SDS011;13429;48.816;9.118;2022-12-11T01:57:24;29.63;;;16.38;;
25531;SDS011;13429;48.816;9.118;2022-12-11T01:59:50;29.65;;;16.13;;
25531;SDS011;13429;48.816;9.118;2022-12-11T02:02:20;28.42;;;16.40;;
25531;SDS011;13429;48.816;9.118;2022-12-11T02:04:47;29.83;;;16.67;;
25531;SDS011;13429;48.816;9.118;2022-12-11T02:07:13;29.15;;;17.25;;
25531;SDS011;13429;48.816;9.118;2022-12-11T02:09:40;33.05;;;17.52;;
25531;SDS011;13429;48.816;9.118;2022-12-11T02:21:19;27.73;;;16.88;;
25531;SDS011;13429;48.816;9.118;2022-12-11T02:29:06;32.90;;;17.63;;
25531;SDS011;13429;48.816;9.118;2022-12-11T02:31:35;32.85;;;17.92;;
25531;SDS011;13429;48.816;9.118;2022-12-11T02:36:30;32.08;;;18.13;;
25531;SDS011;13429;48.816;9.118;2022-12-11T02:38:57;31.63;;;17.85;;
25531;SDS011;13429;48.816;9.118;2022-12-11T02:41:24;32.55;;;17.75;;
25531;SDS011;13429;48.816;9.118;2022-12-11T02:43:51;35.00;;;18.42;;
25531;SDS011;13429;48.816;9.118;2022-12-11T02:46:18;33.38;;;17.10;;
25531;SDS011;13429;48.816;9.118;2022-12-11T02:48:45;33.92;;;18.30;;
25531;SDS011;13429;48.816;9.118;2022-12-11T02:51:12;30.92;;;18.20;;
25531;SDS011;13429;48.816;9.118;2022-12-11T02:53:39;33.13;;;19.35;;
25531;SDS011;13429;48.816;9.118;2022-12-11T02:56:12;27.50;;;17.00;;
25531;SDS011;13429;48.816;9.118;2022-12-11T02:58:42;33.22;;;17.90;;
25531;SDS011;13429;48.816;9.118;2022-12-11T03:01:10;33.22;;;19.52;;
25531;SDS011;13429;48.816;9.118;2022-12-11T03:03:36;33.30;;;18.35;;
25531;SDS011;13429;48.816;9.118;2022-12-11T03:06:02;35.85;;;20.40;;
25531;SDS011;13429;48.816;9.118;2022-12-11T03:08:28;32.53;;;18.83;;
25531;SDS011;13429;48.816;9.118;2022-12-11T03:10:54;33.10;;;18.77;;
25531;SDS011;13429;48.816;9.118;2022-12-11T03:13:20;36.38;;;18.65;;
25531;SDS011;13429;48.816;9.118;2022-12-11T03:16:03;34.85;;;19.42;;
25531;SDS011;13429;48.816;9.118;2022-12-11T03:18:35;32.45;;;19.20;;
25531;SDS011;13429;48.816;9.118;2022-12-11T03:21:12;31.38;;;17.75;;
25531;SDS011;13429;48.816;9.118;2022-12-11T03:23:43;34.10;;;19.95;;
25531;SDS011;13429;48.816;9.118;2022-12-11T03:26:12;39.15;;;20.00;;
25531;SDS011;13429;48.816;9.118;2022-12-11T03:28:50;32.30;;;19.33;;
25531;SDS011;13429;48.816;9.118;2022-12-11T03:32:01;35.90;;;19.75;;
25531;SDS011;13429;48.816;9.118;2022-12-11T03:34:09;33.70;;;19.40;;
25531;SDS011;13429;48.816;9.118;2022-12-11T03:36:38;38.33;;;20.58;;
25531;SDS011;13429;48.816;9.118;2022-12-11T03:39:06;35.38;;;20.50;;
25531;SDS011;13429;48.816;9.118;2022-12-11T03:41:32;39.10;;;20.65;;
25531;SDS011;13429;48.816;9.118;2022-12-11T03:43:59;33.22;;;19.05;;
25531;SDS011;13429;48.816;9.118;2022-12-11T03:46:31;37.60;;;19.92;;
25531;SDS011;13429;48.816;9.118;2022-12-11T03:49:00;34.17;;;19.58;;
25531;SDS011;13429;48.816;9.118;2022-12-11T03:51:28;35.35;;;20.08;;
25531;SDS011;13429;48.816;9.118;2022-12-11T03:53:55;36.70;;;20.98;;
25531;SDS011;13429;48.816;9.118;2022-12-11T03:56:21;33.08;;;17.73;;
25531;SDS011;13429;48.816;9.118;2022-12-11T03:58:49;29.67;;;17.73;;
25531;SDS011;13429;48.816;9.118;2022-12-11T04:01:15;35.38;;;19.80;;
25531;SDS011;13429;48.816;9.118;2022-12-11T04:03:41;32.60;;;18.55;;
25531;SDS011;13429;48.816;9.118;2022-12-11T04:06:06;32.75;;;18.60;;
25531;SDS011;13429;48.816;9.118;2022-12-11T04:08:32;33.40;;;18.23;;
25531;SDS011;13429;48.816;9.118;2022-12-11T04:10:58;31.63;;;18.85;;
25531;SDS011;13429;48.816;9.118;2022-12-11T04:13:50;32.95;;;19.58;;
25531;SDS011;13429;48.816;9.118;2022-12-11T04:16:35;32.85;;;18.27;;
25531;SDS011;13429;48.816;9.118;2022-12-11T04:19:02;33.47;;;18.20;;
25531;SDS011;13429;48.816;9.118;2022-12-11T04:21:47;30.35;;;18.23;;
25531;SDS011;13429;48.816;9.118;2022-12-11T04:24:32;25.55;;;15.02;;
25531;SDS011;13429;48.816;9.118;2022-12-11T04:26:58;26.77;;;15.43;;
25531;SDS011;13429;48.816;9.118;2022-12-11T04:29:24;28.05;;;15.80;;
25531;SDS011;13429;48.816;9.118;2022-12-11T04:31:50;26.33;;;14.57;;
25531;SDS011;13429;48.816;9.118;2022-12-11T04:34:16;24.55;;;14.82;;
25531;SDS011;13429;48.816;9.118;2022-12-11T04:36:42;27.50;;;15.57;;
25531;SDS011;13429;48.816;9.118;2022-12-11T04:39:08;20.50;;;12.38;;
25531;SDS011;13429;48.816;9.118;2022-12-11T04:41:34;23.10;;;12.82;;
25531;SDS011;13429;48.816;9.118;2022-12-11T04:44:01;23.85;;;14.15;;
25531;SDS011;13429;48.816;9.118;2022-12-11T04:46:27;26.88;;;14.93;;
25531;SDS011;13429;48.816;9.118;2022-12-11T04:48:53;25.08;;;14.32;;
25531;SDS011;13429;48.816;9.118;2022-12-11T04:51:19;23.13;;;13.30;;
25531;SDS011;13429;48.816;9.118;2022-12-11T04:53:45;26.25;;;14.25;;
25531;SDS011;13429;48.816;9.118;2022-12-11T04:56:12;26.33;;;13.50;;
25531;SDS011;13429;48.816;9.118;2022-12-11T04:58:39;23.40;;;13.55;;
25531;SDS011;13429;48.816;9.118;2022-12-11T05:01:06;26.05;;;14.18;;
25531;SDS011;13429;48.816;9.118;2022-12-11T05:03:32;21.92;;;12.80;;
25531;SDS011;13429;48.816;9.118;2022-12-11T05:05:58;24.73;;;13.43;;
25531;SDS011;13429;48.816;9.118;2022-12-11T05:08:24;25.75;;;13.38;;
25531;SDS011;13429;48.816;9.118;2022-12-11T05:10:56;28.25;;;16.23;;
25531;SDS011;13429;48.816;9.118;2022-12-11T05:13:22;28.38;;;15.48;;
25531;SDS011;13429;48.816;9.118;2022-12-11T05:15:48;25.48;;;14.45;;
25531;SDS011;13429;48.816;9.118;2022-12-11T05:18:14;27.40;;;15.57;;
25531;SDS011;13429;48.816;9.118;2022-12-11T05:20:40;27.00;;;14.30;;
25531;SDS011;13429;48.816;9.118;2022-12-11T05:23:06;27.52;;;14.88;;
25531;SDS011;13429;48.816;9.118;2022-12-11T05:25:32;24.85;;;14.52;;
25531;SDS011;13429;48.816;9.118;2022-12-11T05:27:58;23.45;;;12.73;;
25531;SDS011;13429;48.816;9.118;2022-12-11T05:30:24;23.40;;;12.73;;
25531;SDS011;13429;48.816;9.118;2022-12-11T05:32:50;29.98;;;16.02;;
25531;SDS011;13429;48.816;9.118;2022-12-11T05:35:16;29.20;;;15.82;;
25531;SDS011;13429;48.816;9.118;2022-12-11T05:37:42;32.95;;;16.60;;
25531;SDS011;13429;48.816;9.118;2022-12-11T05:40:09;26.90;;;15.57;;
25531;SDS011;13429;48.816;9.118;2022-12-11T05:42:39;29.35;;;15.52;;
25531;SDS011;13429;48.816;9.118;2022-12-11T05:45:05;26.98;;;14.80;;
25531;SDS011;13429;48.816;9.118;2022-12-11T05:47:31;29.40;;;15.90;;
25531;SDS011;13429;48.816;9.118;2022-12-11T05:49:57;28.10;;;15.45;;
25531;SDS011;13429;48.816;9.118;2022-12-11T05:52:23;29.00;;;15.98;;
25531;SDS011;13429;48.816;9.118;2022-12-11T05:54:49;30.15;;;16.33;;
25531;SDS011;13429;48.816;9.118;2022-12-11T05:57:15;29.15;;;15.65;;
25531;SDS011;13429;48.816;9.118;2022-12-11T05:59:41;29.90;;;15.80;;
25531;SDS011;13429;48.816;9.118;2022-12-11T06:02:07;28.20;;;15.35;;
25531;SDS011;13429;48.816;9.118;2022-12-11T06:04:34;27.52;;;15.80;;
25531;SDS011;13429;48.816;9.118;2022-12-11T06:06:59;24.33;;;14.65;;
25531;SDS011;13429;48.816;9.118;2022-12-11T06:09:26;24.45;;;15.25;;
25531;SDS011;13429;48.816;9.118;2022-12-11T06:11:51;31.17;;;16.75;;
25531;SDS011;13429;48.816;9.118;2022-12-11T06:14:17;26.08;;;14.30;;
25531;SDS011;13429;48.816;9.118;2022-12-11T06:16:44;26.15;;;14.63;;
25531;SDS011;13429;48.816;9.118;2022-12-11T06:19:13;27.90;;;14.82;;
25531;SDS011;13429;48.816;9.118;2022-12-11T06:21:40;26.80;;;14.52;;
25531;SDS011;13429;48.816;9.118;2022-12-11T06:24:09;27.92;;;14.82;;
25531;SDS011;13429;48.816;9.118;2022-12-11T06:26:35;27.83;;;14.90;;
25531;SDS011;13429;48.816;9.118;2022-12-11T06:29:01;30.38;;;15.77;;
25531;SDS011;13429;48.816;9.118;2022-12-11T06:31:27;26.42;;;14.85;;
25531;SDS011;13429;48.816;9.118;2022-12-11T06:33:53;24.92;;;13.32;;
25531;SDS011;13429;48.816;9.118;2022-12-11T06:36:20;26.58;;;13.77;;
25531;SDS011;13429;48.816;9.118;2022-12-11T06:38:46;25.70;;;14.45;;
25531;SDS011;13429;48.816;9.118;2022-12-11T06:41:13;26.50;;;14.93;;
25531;SDS011;13429;48.816;9.118;2022-12-11T06:43:39;29.08;;;15.90;;
25531;SDS011;13429;48.816;9.118;2022-12-11T06:46:06;33.88;;;16.55;;
25531;SDS011;13429;48.816;9.118;2022-12-11T06:48:32;37.42;;;17.38;;
25531;SDS011;13429;48.816;9.118;2022-12-11T06:50:58;35.58;;;18.60;;
25531;SDS011;13429;48.816;9.118;2022-12-11T06:53:24;29.10;;;15.82;;
25531;SDS011;13429;48.816;9.118;2022-12-11T06:55:50;29.83;;;15.50;;
25531;SDS011;13429;48.816;9.118;2022-12-11T06:58:16;30.67;;;15.35;;
25531;SDS011;13429;48.816;9.118;2022-12-11T07:00:42;30.92;;;16.15;;
25531;SDS011;13429;48.816;9.118;2022-12-11T07:03:08;32.45;;;16.08;;
25531;SDS011;13429;48.816;9.118;2022-12-11T07:05:35;31.90;;;17.52;;
25531;SDS011;13429;48.816;9.118;2022-12-11T07:08:01;36.80;;;18.73;;
25531;SDS011;13429;48.816;9.118;2022-12-11T07:10:27;35.53;;;18.13;;
25531;SDS011;13429;48.816;9.118;2022-12-11T07:12:53;39.70;;;20.20;;
25531;SDS011;13429;48.816;9.118;2022-12-11T07:15:19;32.22;;;15.57;;
25531;SDS011;13429;48.816;9.118;2022-12-11T07:17:45;28.85;;;16.42;;
25531;SDS011;13429;48.816;9.118;2022-12-11T07:20:11;32.83;;;16.77;;
25531;SDS011;13429;48.816;9.118;2022-12-11T07:22:37;35.10;;;16.52;;
25531;SDS011;13429;48.816;9.118;2022-12-11T07:25:04;32.97;;;17.63;;
25531;SDS011;13429;48.816;9.118;2022-12-11T07:27:30;29.88;;;17.02;;
25531;SDS011;13429;48.816;9.118;2022-12-11T07:29:55;33.70;;;16.10;;
25531;SDS011;13429;48.816;9.118;2022-12-11T07:32:21;28.05;;;16.55;;
25531;SDS011;13429;48.816;9.118;2022-12-11T07:34:48;29.95;;;16.80;;
25531;SDS011;13429;48.816;9.118;2022-12-11T07:37:14;36.65;;;17.90;;
25531;SDS011;13429;48.816;9.118;2022-12-11T07:39:40;36.65;;;20.05;;
25531;SDS011;13429;48.816;9.118;2022-12-11T07:42:06;36.17;;;18.35;;
25531;SDS011;13429;48.816;9.118;2022-12-11T07:44:32;30.75;;;16.10;;
25531;SDS011;13429;48.816;9.118;2022-12-11T07:46:58;31.85;;;17.70;;
25531;SDS011;13429;48.816;9.118;2022-12-11T07:49:24;28.20;;;15.70;;
25531;SDS011;13429;48.816;9.118;2022-12-11T07:51:50;29.30;;;16.13;;
25531;SDS011;13429;48.816;9.118;2022-12-11T07:54:16;33.03;;;17.25;;
25531;SDS011;13429;48.816;9.118;2022-12-11T07:56:42;29.13;;;16.35;;
25531;SDS011;13429;48.816;9.118;2022-12-11T07:59:09;28.20;;;15.93;;
25531;SDS011;13429;48.816;9.118;2022-12-11T08:01:35;43.92;;;23.77;;
25531;SDS011;13429;48.816;9.118;2022-12-11T08:04:02;40.38;;;21.70;;
25531;SDS011;13429;48.816;9.118;2022-12-11T08:06:29;41.35;;;24.15;;
25531;SDS011;13429;48.816;9.118;2022-12-11T08:08:56;39.55;;;20.70;;
25531;SDS011;13429;48.816;9.118;2022-12-11T08:11:22;36.13;;;19.67;;
25531;SDS011;13429;48.816;9.118;2022-12-11T08:13:48;37.28;;;19.35;;
25531;SDS011;13429;48.816;9.118;2022-12-11T08:16:15;33.13;;;17.90;;
25531;SDS011;13429;48.816;9.118;2022-12-11T08:18:41;37.28;;;18.15;;
25531;SDS011;13429;48.816;9.118;2022-12-11T08:21:08;28.52;;;16.15;;
25531;SDS011;13429;48.816;9.118;2022-12-11T08:23:35;34.63;;;19.10;;
25531;SDS011;13429;48.816;9.118;2022-12-11T08:26:05;30.92;;;17.15;;
25531;SDS011;13429;48.816;9.118;2022-12-11T08:28:32;26.77;;;15.47;;
25531;SDS011;13429;48.816;9.118;2022-12-11T08:30:58;36.88;;;17.08;;
25531;SDS011;13429;48.816;9.118;2022-12-11T08:33:24;36.47;;;19.33;;
25531;SDS011;13429;48.816;9.118;2022-12-11T08:35:50;32.00;;;17.48;;
25531;SDS011;13429;48.816;9.118;2022-12-11T08:38:16;31.67;;;18.65;;
25531;SDS011;13429;48.816;9.118;2022-12-11T08:40:42;33.60;;;18.05;;
25531;SDS011;13429;48.816;9.118;2022-12-11T08:43:08;29.55;;;16.98;;
25531;SDS011;13429;48.816;9.118;2022-12-11T08:45:34;29.23;;;16.73;;
25531;SDS011;13429;48.816;9.118;2022-12-11T08:48:00;31.85;;;16.67;;
25531;SDS011;13429;48.816;9.118;2022-12-11T08:50:26;29.98;;;17.13;;
25531;SDS011;13429;48.816;9.118;2022-12-11T08:52:52;33.08;;;17.45;;
25531;SDS011;13429;48.816;9.118;2022-12-11T08:55:19;30.45;;;16.55;;
25531;SDS011;13429;48.816;9.118;2022-12-11T08:57:46;30.35;;;16.55;;
25531;SDS011;13429;48.816;9.118;2022-12-11T09:00:12;30.70;;;16.23;;
25531;SDS011;13429;48.816;9.118;2022-12-11T09:02:39;29.58;;;16.63;;
25531;SDS011;13429;48.816;9.118;2022-12-11T09:05:05;30.85;;;16.13;;
25531;SDS011;13429;48.816;9.118;2022-12-11T09:07:33;27.48;;;14.95;;
25531;SDS011;13429;48.816;9.118;2022-12-11T09:09:59;28.70;;;15.32;;
25531;SDS011;13429;48.816;9.118;2022-12-11T09:12:26;28.83;;;15.88;;
25531;SDS011;13429;48.816;9.118;2022-12-11T09:14:52;25.02;;;14.52;;
25531;SDS011;13429;48.816;9.118;2022-12-11T09:17:18;27.95;;;15.48;;
25531;SDS011;13429;48.816;9.118;2022-12-11T09:19:44;26.25;;;14.05;;
25531;SDS011;13429;48.816;9.118;2022-12-11T09:22:10;27.70;;;15.00;;
25531;SDS011;13429;48.816;9.118;2022-12-11T09:24:37;25.73;;;14.52;;
25531;SDS011;13429;48.816;9.118;2022-12-11T09:27:03;27.17;;;15.60;;
25531;SDS011;13429;48.816;9.118;2022-12-11T09:29:29;27.17;;;15.25;;
25531;SDS011;13429;48.816;9.118;2022-12-11T09:31:55;29.98;;;17.92;;
25531;SDS011;13429;48.816;9.118;2022-12-11T09:34:21;29.35;;;15.88;;
25531;SDS011;13429;48.816;9.118;2022-12-11T09:36:47;28.58;;;15.65;;
25531;SDS011;13429;48.816;9.118;2022-12-11T09:39:14;28.88;;;15.00;;
25531;SDS011;13429;48.816;9.118;2022-12-11T09:44:39;26.73;;;15.48;;
25531;SDS011;13429;48.816;9.118;2022-12-11T09:47:17;27.73;;;15.23;;
25531;SDS011;13429;48.816;9.118;2022-12-11T09:49:44;26.00;;;14.50;;
25531;SDS011;13429;48.816;9.118;2022-12-11T09:52:17;31.35;;;17.35;;
25531;SDS011;13429;48.816;9.118;2022-12-11T09:54:55;34.33;;;19.60;;
25531;SDS011;13429;48.816;9.118;2022-12-11T09:57:31;32.65;;;16.45;;
25531;SDS011;13429;48.816;9.118;2022-12-11T10:00:11;29.95;;;16.92;;
25531;SDS011;13429;48.816;9.118;2022-12-11T10:05:25;30.85;;;17.90;;
25531;SDS011;13429;48.816;9.118;2022-12-11T10:16:19;31.35;;;17.65;;
25531;SDS011;13429;48.816;9.118;2022-12-11T10:18:48;29.48;;;17.98;;
25531;SDS011;13429;48.816;9.118;2022-12-11T10:21:15;30.85;;;18.33;;
25531;SDS011;13429;48.816;9.118;2022-12-11T10:23:43;33.75;;;18.92;;
25531;SDS011;13429;48.816;9.118;2022-12-11T10:26:18;30.98;;;17.85;;
25531;SDS011;13429;48.816;9.118;2022-12-11T10:28:44;29.00;;;17.25;;
25531;SDS011;13429;48.816;9.118;2022-12-11T10:31:17;33.13;;;17.50;;
25531;SDS011;13429;48.816;9.118;2022-12-11T10:36:10;30.08;;;17.83;;
25531;SDS011;13429;48.816;9.118;2022-12-11T10:38:41;29.02;;;16.27;;
25531;SDS011;13429;48.816;9.118;2022-12-11T10:41:11;32.60;;;18.02;;
25531;SDS011;13429;48.816;9.118;2022-12-11T10:43:45;29.40;;;16.15;;
25531;SDS011;13429;48.816;9.118;2022-12-11T10:46:16;29.85;;;16.15;;
25531;SDS011;13429;48.816;9.118;2022-12-11T10:48:49;29.97;;;16.03;;
25531;SDS011;13429;48.816;9.118;2022-12-11T10:51:17;30.88;;;17.67;;
25531;SDS011;13429;48.816;9.118;2022-12-11T10:53:48;33.47;;;18.48;;
25531;SDS011;13429;48.816;9.118;2022-12-11T10:56:14;30.38;;;17.30;;
25531;SDS011;13429;48.816;9.118;2022-12-11T10:58:45;29.48;;;16.35;;
25531;SDS011;13429;48.816;9.118;2022-12-11T11:01:14;29.88;;;17.35;;
25531;SDS011;13429;48.816;9.118;2022-12-11T11:04:28;32.33;;;18.45;;
25531;SDS011;13429;48.816;9.118;2022-12-11T11:06:28;28.48;;;16.27;;
25531;SDS011;13429;48.816;9.118;2022-12-11T11:08:55;34.28;;;18.40;;
25531;SDS011;13429;48.816;9.118;2022-12-11T11:11:23;29.33;;;16.33;;
25531;SDS011;13429;48.816;9.118;2022-12-11T11:13:49;28.95;;;16.50;;
25531;SDS011;13429;48.816;9.118;2022-12-11T11:16:17;28.77;;;16.95;;
25531;SDS011;13429;48.816;9.118;2022-12-11T11:18:51;29.45;;;16.08;;
25531;SDS011;13429;48.816;9.118;2022-12-11T11:21:19;32.33;;;17.77;;
25531;SDS011;13429;48.816;9.118;2022-12-11T11:23:45;27.58;;;15.35;;
25531;SDS011;13429;48.816;9.118;2022-12-11T11:26:11;26.38;;;15.32;;
25531;SDS011;13429;48.816;9.118;2022-12-11T11:28:39;28.35;;;15.65;;
25531;SDS011;13429;48.816;9.118;2022-12-11T11:31:12;29.42;;;15.75;;
25531;SDS011;13429;48.816;9.118;2022-12-11T11:33:55;29.55;;;15.88;;
25531;SDS011;13429;48.816;9.118;2022-12-11T11:36:23;28.30;;;14.75;;
25531;SDS011;13429;48.816;9.118;2022-12-11T11:41:42;25.30;;;13.65;;
25531;SDS011;13429;48.816;9.118;2022-12-11T11:44:10;28.27;;;15.95;;
25531;SDS011;13429;48.816;9.118;2022-12-11T11:49:19;26.13;;;14.10;;
25531;SDS011;13429;48.816;9.118;2022-12-11T11:54:19;24.58;;;13.80;;
25531;SDS011;13429;48.816;9.118;2022-12-11T11:56:49;26.55;;;13.60;;
25531;SDS011;13429;48.816;9.118;2022-12-11T11:59:37;25.88;;;12.85;;
25531;SDS011;13429;48.816;9.118;2022-12-11T12:02:08;22.05;;;12.75;;
25531;SDS011;13429;48.816;9.118;2022-12-11T12:04:38;24.38;;;13.55;;
25531;SDS011;13429;48.816;9.118;2022-12-11T12:07:26;42.08;;;18.10;;
25531;SDS011;13429;48.816;9.118;2022-12-11T12:14:58;23.38;;;12.60;;
25531;SDS011;13429;48.816;9.118;2022-12-11T12:17:31;21.70;;;12.35;;
25531;SDS011;13429;48.816;9.118;2022-12-11T12:20:16;26.35;;;13.30;;
25531;SDS011;13429;48.816;9.118;2022-12-11T12:22:53;20.92;;;12.15;;
25531;SDS011;13429;48.816;9.118;2022-12-11T12:30:21;22.45;;;12.43;;
25531;SDS011;13429;48.816;9.118;2022-12-11T12:33:04;22.00;;;12.32;;
25531;SDS011;13429;48.816;9.118;2022-12-11T12:35:37;23.08;;;11.82;;
25531;SDS011;13429;48.816;9.118;2022-12-11T12:40:39;24.65;;;13.35;;
25531;SDS011;13429;48.816;9.118;2022-12-11T12:45:41;21.70;;;12.70;;
25531;SDS011;13429;48.816;9.118;2022-12-11T12:48:08;26.05;;;13.43;;
25531;SDS011;13429;48.816;9.118;2022-12-11T12:50:39;25.63;;;13.57;;
25531;SDS011;13429;48.816;9.118;2022-12-11T12:53:06;24.33;;;13.38;;
25531;SDS011;13429;48.816;9.118;2022-12-11T12:55:34;25.27;;;15.02;;
25531;SDS011;13429;48.816;9.118;2022-12-11T12:58:02;25.85;;;14.70;;
25531;SDS011;13429;48.816;9.118;2022-12-11T13:00:39;29.50;;;16.25;;
25531;SDS011;13429;48.816;9.118;2022-12-11T13:05:39;31.77;;;17.40;;
25531;SDS011;13429;48.816;9.118;2022-12-11T13:08:06;29.42;;;18.10;;
25531;SDS011;13429;48.816;9.118;2022-12-11T13:10:33;35.53;;;19.75;;
25531;SDS011;13429;48.816;9.118;2022-12-11T13:13:01;30.30;;;16.75;;
25531;SDS011;13429;48.816;9.118;2022-12-11T13:15:40;27.33;;;14.50;;
25531;SDS011;13429;48.816;9.118;2022-12-11T13:24:12;33.92;;;17.85;;
25531;SDS011;13429;48.816;9.118;2022-12-11T13:26:39;47.58;;;21.33;;
25531;SDS011;13429;48.816;9.118;2022-12-11T13:29:05;38.10;;;20.38;;
25531;SDS011;13429;48.816;9.118;2022-12-11T13:31:35;40.15;;;21.60;;
25531;SDS011;13429;48.816;9.118;2022-12-11T13:34:06;39.10;;;19.30;;
25531;SDS011;13429;48.816;9.118;2022-12-11T13:36:35;34.80;;;19.83;;
25531;SDS011;13429;48.816;9.118;2022-12-11T13:39:04;41.83;;;20.17;;
25531;SDS011;13429;48.816;9.118;2022-12-11T13:41:32;35.08;;;17.88;;
25531;SDS011;13429;48.816;9.118;2022-12-11T13:43:59;38.30;;;18.70;;
25531;SDS011;13429;48.816;9.118;2022-12-11T13:46:27;34.45;;;17.33;;
25531;SDS011;13429;48.816;9.118;2022-12-11T13:48:58;38.58;;;20.52;;
25531;SDS011;13429;48.816;9.118;2022-12-11T13:51:26;44.22;;;21.13;;
25531;SDS011;13429;48.816;9.118;2022-12-11T13:54:11;40.58;;;21.10;;
25531;SDS011;13429;48.816;9.118;2022-12-11T13:56:39;37.42;;;19.63;;
25531;SDS011;13429;48.816;9.118;2022-12-11T13:59:16;40.90;;;19.50;;
25531;SDS011;13429;48.816;9.118;2022-12-11T14:01:43;34.08;;;18.70;;
25531;SDS011;13429;48.816;9.118;2022-12-11T14:04:18;36.28;;;17.95;;
25531;SDS011;13429;48.816;9.118;2022-12-11T14:06:45;47.58;;;23.70;;
25531;SDS011;13429;48.816;9.118;2022-12-11T14:09:14;38.47;;;20.30;;
25531;SDS011;13429;48.816;9.118;2022-12-11T14:11:41;44.45;;;21.50;;
25531;SDS011;13429;48.816;9.118;2022-12-11T14:14:18;38.55;;;19.85;;
25531;SDS011;13429;48.816;9.118;2022-12-11T14:16:49;39.03;;;19.92;;
25531;SDS011;13429;48.816;9.118;2022-12-11T14:19:16;38.63;;;19.77;;
25531;SDS011;13429;48.816;9.118;2022-12-11T14:21:53;44.47;;;22.17;;
25531;SDS011;13429;48.816;9.118;2022-12-11T14:24:19;43.40;;;22.48;;
25531;SDS011;13429;48.816;9.118;2022-12-11T14:26:49;54.13;;;26.73;;
25531;SDS011;13429;48.816;9.118;2022-12-11T14:29:22;47.78;;;23.15;;
25531;SDS011;13429;48.816;9.118;2022-12-11T14:31:49;47.78;;;22.65;;
25531;SDS011;13429;48.816;9.118;2022-12-11T14:34:49;50.47;;;26.55;;
25531;SDS011;13429;48.816;9.118;2022-12-11T14:37:08;56.25;;;28.85;;
25531;SDS011;13429;48.816;9.118;2022-12-11T14:40:18;46.50;;;24.40;;
25531;SDS011;13429;48.816;9.118;2022-12-11T14:42:31;40.97;;;22.88;;
25531;SDS011;13429;48.816;9.118;2022-12-11T14:45:06;39.95;;;21.50;;
25531;SDS011;13429;48.816;9.118;2022-12-11T14:47:36;44.28;;;21.80;;
25531;SDS011;13429;48.816;9.118;2022-12-11T14:50:08;40.58;;;21.60;;
25531;SDS011;13429;48.816;9.118;2022-12-11T14:52:41;41.90;;;22.02;;
25531;SDS011;13429;48.816;9.118;2022-12-11T14:55:11;42.55;;;20.20;;
25531;SDS011;13429;48.816;9.118;2022-12-11T14:57:40;40.60;;;20.92;;
25531;SDS011;13429;48.816;9.118;2022-12-11T15:00:19;46.85;;;21.55;;
25531;SDS011;13429;48.816;9.118;2022-12-11T15:02:54;42.00;;;22.00;;
25531;SDS011;13429;48.816;9.118;2022-12-11T15:05:21;44.10;;;22.48;;
25531;SDS011;13429;48.816;9.118;2022-12-11T15:07:55;40.38;;;20.90;;
25531;SDS011;13429;48.816;9.118;2022-12-11T15:10:22;36.88;;;20.38;;
25531;SDS011;13429;48.816;9.118;2022-12-11T15:12:48;46.83;;;23.30;;
25531;SDS011;13429;48.816;9.118;2022-12-11T15:15:15;38.47;;;19.27;;
25531;SDS011;13429;48.816;9.118;2022-12-11T15:17:41;43.53;;;22.80;;
25531;SDS011;13429;48.816;9.118;2022-12-11T15:20:08;45.28;;;22.27;;
25531;SDS011;13429;48.816;9.118;2022-12-11T15:22:40;44.40;;;22.43;;
25531;SDS011;13429;48.816;9.118;2022-12-11T15:25:15;37.45;;;19.10;;
25531;SDS011;13429;48.816;9.118;2022-12-11T15:27:42;42.38;;;19.58;;
25531;SDS011;13429;48.816;9.118;2022-12-11T15:32:42;41.08;;;20.77;;
25531;SDS011;13429;48.816;9.118;2022-12-11T15:35:24;42.00;;;21.55;;
25531;SDS011;13429;48.816;9.118;2022-12-11T15:37:51;38.42;;;20.33;;
25531;SDS011;13429;48.816;9.118;2022-12-11T15:40:18;42.90;;;21.35;;